createdAt,value
2023-03-11T00:01:11.248Z,78.15
2023-03-11T00:03:38.838Z,79.03
2023-03-11T00:06:07.423Z,77.75
2023-03-11T00:08:35.122Z,77.23
2023-03-11T00:11:02.715Z,78.14
2023-03-11T00:13:31.004Z,78.94
2023-03-11T00:16:02.025Z,79.31
2023-03-11T00:18:31.427Z,78.58
2023-03-11T00:21:00.443Z,77.67
2023-03-11T00:23:28.476Z,77.02
2023-03-11T00:25:56.196Z,77.26
2023-03-11T00:28:26.004Z,76.57
2023-03-11T00:30:53.713Z,77.29
2023-03-11T00:33:22.616Z,77.40
2023-03-11T00:35:51.322Z,77.60
2023-03-11T00:38:19.526Z,78.92
2023-03-11T00:40:48.968Z,78.63
2023-03-11T00:43:17.493Z,79.45
2023-03-11T00:45:45.733Z,79.79
2023-03-11T00:48:14.703Z,79.93
2023-03-11T00:50:44.749Z,79.81
2023-03-11T00:53:13.533Z,80.02
2023-03-11T00:55:44.540Z,80.21
2023-03-11T00:58:13.382Z,80.41
2023-03-11T01:00:44.224Z,81.25
2023-03-11T01:03:12.385Z,80.37
2023-03-11T01:05:40.076Z,80.76
2023-03-11T01:08:09.459Z,80.95
2023-03-11T01:10:38.004Z,80.67
2023-03-11T01:13:06.146Z,81.46
2023-03-11T01:15:36.075Z,81.79
2023-03-11T01:18:04.731Z,82.66
2023-03-11T01:20:32.611Z,82.63
2023-03-11T01:23:00.738Z,83.15
2023-03-11T01:25:30.236Z,84.38
2023-03-11T01:27:58.001Z,84.45
2023-03-11T01:30:29.937Z,84.16
2023-03-11T01:32:59.298Z,83.94
2023-03-11T01:35:31.634Z,84.52
2023-03-11T01:37:59.458Z,84.32
2023-03-11T01:40:30.876Z,84.32
2023-03-11T01:42:58.748Z,84.11
2023-03-11T01:45:35.054Z,83.25
2023-03-11T01:48:02.947Z,82.95
2023-03-11T01:50:35.156Z,83.05
2023-03-11T01:53:03.618Z,82.93
2023-03-11T01:55:33.248Z,83.04
2023-03-11T01:58:01.294Z,82.68
2023-03-11T02:00:31.609Z,82.67
2023-03-11T02:03:02.132Z,81.82
2023-03-11T02:05:31.804Z,82.99
2023-03-11T02:07:59.418Z,82.46
2023-03-11T02:10:27.448Z,82.43
2023-03-11T02:12:56.654Z,82.62
2023-03-11T02:15:25.381Z,82.67
2023-03-11T02:17:53.639Z,83.30
2023-03-11T02:20:31.699Z,82.99
2023-03-11T02:23:02.477Z,83.19
2023-03-11T02:25:35.520Z,82.81
2023-03-11T02:28:06.873Z,84.44
2023-03-11T02:30:37.465Z,84.21
2023-03-11T02:33:05.246Z,84.54
2023-03-11T02:35:32.997Z,84.36
2023-03-11T02:38:00.583Z,83.73
2023-03-11T02:40:58.888Z,83.76
2023-03-11T02:43:34.285Z,83.92
2023-03-11T02:46:02.703Z,84.77
2023-03-11T02:48:30.743Z,84.20
2023-03-11T02:50:58.713Z,83.50
2023-03-11T02:53:27.863Z,83.80
2023-03-11T02:55:55.489Z,83.54
2023-03-11T02:58:23.152Z,83.37
2023-03-11T03:00:52.509Z,83.81
2023-03-11T03:03:20.061Z,84.14
2023-03-11T03:05:47.662Z,83.88
2023-03-11T03:08:15.292Z,83.93
2023-03-11T03:10:42.835Z,84.64
2023-03-11T03:13:10.422Z,84.39
2023-03-11T03:15:38.056Z,84.29
2023-03-11T03:18:07.134Z,85.05
2023-03-11T03:20:34.763Z,85.60
2023-03-11T03:23:02.551Z,86.45
2023-03-11T03:25:30.200Z,86.99
2023-03-11T03:27:57.746Z,87.18
2023-03-11T03:30:25.321Z,87.84
2023-03-11T03:32:53.005Z,88.02
2023-03-11T03:35:22.120Z,87.93
2023-03-11T03:37:49.644Z,88.31
2023-03-11T03:40:17.765Z,88.16
2023-03-11T03:42:48.490Z,88.54
2023-03-11T03:45:19.561Z,88.93
2023-03-11T03:47:48.511Z,89.45
2023-03-11T03:50:16.755Z,89.55
2023-03-11T03:52:45.742Z,88.46
2023-03-11T03:55:13.348Z,88.15
2023-03-11T03:57:41.313Z,88.92
2023-03-11T04:00:10.249Z,89.34
2023-03-11T04:02:37.901Z,89.25
2023-03-11T04:05:06.349Z,89.36
2023-03-11T04:07:34.866Z,90.03
2023-03-11T04:10:04.847Z,89.89
2023-03-11T04:12:32.470Z,90.37
2023-03-11T04:15:00.039Z,90.01
2023-03-11T04:17:27.605Z,90.14
2023-03-11T04:19:55.125Z,90.06
2023-03-11T04:22:22.717Z,90.08
2023-03-11T04:24:50.364Z,90.23
2023-03-11T04:27:19.265Z,90.31
2023-03-11T04:29:46.858Z,90.12
2023-03-11T04:32:14.471Z,90.08
2023-03-11T04:34:42.047Z,89.89
2023-03-11T04:37:09.715Z,89.24
2023-03-11T04:39:37.500Z,88.80
2023-03-11T04:42:05.358Z,89.14
2023-03-11T04:44:35.852Z,89.61
2023-03-11T04:47:03.458Z,89.47
2023-03-11T04:49:31.009Z,90.58
2023-03-11T04:51:58.589Z,90.79
2023-03-11T04:54:26.139Z,90.64
2023-03-11T04:56:53.729Z,90.91
2023-03-11T04:59:21.375Z,90.91
2023-03-11T05:01:50.344Z,90.82
2023-03-11T05:04:18.012Z,91.23
2023-03-11T05:06:45.579Z,91.18
2023-03-11T05:09:13.087Z,91.60
2023-03-11T05:11:40.690Z,91.12
2023-03-11T05:14:08.275Z,91.10
2023-03-11T05:16:35.857Z,90.33
2023-03-11T05:19:25.757Z,89.49
2023-03-11T05:21:53.365Z,89.67
2023-03-11T05:24:21.032Z,89.23
2023-03-11T05:26:48.709Z,89.06
2023-03-11T05:29:16.362Z,89.61
2023-03-11T05:31:43.954Z,90.08
2023-03-11T05:34:12.824Z,90.36
2023-03-11T05:36:40.501Z,90.60
2023-03-11T05:39:08.134Z,90.86
2023-03-11T05:41:35.906Z,90.49
2023-03-11T05:44:03.537Z,89.90
2023-03-11T05:46:32.203Z,89.65
2023-03-11T05:49:00.488Z,89.89
2023-03-11T05:51:29.441Z,89.98
2023-03-11T05:53:57.110Z,89.60
2023-03-11T05:56:24.663Z,89.13
2023-03-11T05:58:52.208Z,89.24
2023-03-11T06:01:20.760Z,89.29
2023-03-11T06:03:48.429Z,89.07
2023-03-11T06:06:17.672Z,88.88
2023-03-11T06:08:49.800Z,89.01
2023-03-11T06:11:18.259Z,89.26
2023-03-11T06:13:45.802Z,88.97
2023-03-11T06:16:13.712Z,88.48
2023-03-11T06:18:41.287Z,87.25
2023-03-11T06:21:09.424Z,86.67
2023-03-11T06:23:37.131Z,86.13
2023-03-11T06:26:06.743Z,85.61
2023-03-11T06:28:35.184Z,85.29
2023-03-11T06:31:09.446Z,84.62
2023-03-11T06:33:37.078Z,84.74
2023-03-11T06:36:06.184Z,84.27
2023-03-11T06:38:37.298Z,84.29
2023-03-11T06:41:07.304Z,84.20
2023-03-11T06:43:35.837Z,83.38
2023-03-11T06:46:09.400Z,83.95
2023-03-11T06:48:37.010Z,83.89
2023-03-11T06:51:04.985Z,83.68
2023-03-11T06:53:32.779Z,83.67
2023-03-11T06:56:02.003Z,83.55
2023-03-11T06:58:31.503Z,83.13
2023-03-11T07:01:02.627Z,83.59
2023-03-11T07:03:30.262Z,82.28
2023-03-11T07:05:58.414Z,82.59
2023-03-11T07:08:26.796Z,83.37
2023-03-11T07:11:01.820Z,83.45
2023-03-11T07:13:30.789Z,84.99
2023-03-11T07:16:02.379Z,85.04
2023-03-11T07:18:30.043Z,84.98
2023-03-11T07:20:57.877Z,84.70
2023-03-11T07:23:25.463Z,84.21
2023-03-11T07:25:55.377Z,83.27
2023-03-11T07:28:23.196Z,83.28
2023-03-11T07:30:52.460Z,83.68
2023-03-11T07:33:20.818Z,83.34
2023-03-11T07:35:49.313Z,83.12
2023-03-11T07:38:17.989Z,83.07
2023-03-11T07:40:45.699Z,82.41
2023-03-11T07:43:13.330Z,82.42
2023-03-11T07:45:40.927Z,81.88
2023-03-11T07:48:09.867Z,81.03
2023-03-11T07:50:37.456Z,81.10
2023-03-11T07:53:04.977Z,81.36
2023-03-11T07:55:32.589Z,80.43
2023-03-11T07:58:00.215Z,78.80
2023-03-11T08:00:27.773Z,79.99
2023-03-11T08:02:55.297Z,77.12
2023-03-11T08:05:24.270Z,75.92
2023-03-11T08:07:51.844Z,76.62
2023-03-11T08:10:19.430Z,75.94
2023-03-11T08:12:46.971Z,75.31
2023-03-11T08:15:14.525Z,74.90
2023-03-11T08:17:42.045Z,74.97
2023-03-11T08:20:11.604Z,74.50
2023-03-11T08:22:55.624Z,74.80
2023-03-11T08:25:25.134Z,73.74
2023-03-11T08:27:52.733Z,73.50
2023-03-11T08:30:21.512Z,74.03
2023-03-11T08:32:49.242Z,72.47
2023-03-11T08:35:17.334Z,73.19
2023-03-11T08:37:46.311Z,73.69
2023-03-11T08:40:14.698Z,73.14
2023-03-11T08:42:42.273Z,69.03
2023-03-11T08:45:10.736Z,68.99
2023-03-11T08:47:39.165Z,69.60
2023-03-11T08:50:08.754Z,69.08
2023-03-11T08:52:36.428Z,67.90
2023-03-11T08:55:06.482Z,67.52
2023-03-11T08:57:34.218Z,68.17
2023-03-11T09:00:01.769Z,70.17
2023-03-11T09:02:29.313Z,69.50
2023-03-11T09:04:56.883Z,68.30
2023-03-11T09:07:24.400Z,66.97
2023-03-11T09:09:52.018Z,65.97
2023-03-11T09:12:21.112Z,66.90
2023-03-11T09:14:49.066Z,66.83
2023-03-11T09:17:17.216Z,66.31
2023-03-11T09:19:44.745Z,64.74
2023-03-11T09:22:12.777Z,66.23
2023-03-11T09:24:40.545Z,64.77
2023-03-11T09:27:08.125Z,65.19
2023-03-11T09:29:37.030Z,65.88
2023-03-11T09:32:04.999Z,65.70
2023-03-11T09:34:32.603Z,66.21
2023-03-11T09:37:01.924Z,64.95
2023-03-11T09:39:29.482Z,64.05
2023-03-11T09:41:59.401Z,62.97
2023-03-11T09:44:33.858Z,62.34
2023-03-11T09:47:15.598Z,61.83
2023-03-11T09:50:05.906Z,62.21
2023-03-11T09:52:39.124Z,61.83
2023-03-11T09:55:21.166Z,61.31
2023-03-11T09:57:49.333Z,62.00
2023-03-11T10:00:20.084Z,63.00
2023-03-11T10:02:50.160Z,63.07
2023-03-11T10:05:21.927Z,61.68
2023-03-11T10:07:53.947Z,61.84
2023-03-11T10:10:22.017Z,59.54
2023-03-11T10:12:53.920Z,60.26
2023-03-11T10:15:25.862Z,60.56
2023-03-11T10:18:06.516Z,61.12
2023-03-11T10:20:39.990Z,60.55
2023-03-11T10:23:16.809Z,61.80
2023-03-11T10:25:51.229Z,61.15
2023-03-11T10:28:20.426Z,60.38
2023-03-11T10:30:49.410Z,60.20
2023-03-11T10:33:23.030Z,59.61
2023-03-11T10:35:53.341Z,60.22
2023-03-11T10:38:23.300Z,59.62
2023-03-11T10:40:52.611Z,60.28
2023-03-11T10:43:22.965Z,60.14
2023-03-11T10:45:51.105Z,59.43
2023-03-11T10:48:20.994Z,59.01
2023-03-11T10:50:52.066Z,59.43
2023-03-11T10:53:20.977Z,58.82
2023-03-11T10:55:50.266Z,58.80
2023-03-11T10:58:20.283Z,58.51
2023-03-11T11:00:48.007Z,57.71
2023-03-11T11:03:23.413Z,57.40
2023-03-11T11:06:02.095Z,57.03
2023-03-11T11:08:30.048Z,57.66
2023-03-11T11:10:59.572Z,59.62
2023-03-11T11:13:30.194Z,60.22
2023-03-11T11:16:03.457Z,61.46
2023-03-11T11:18:34.995Z,60.57
2023-03-11T11:21:06.989Z,60.89
2023-03-11T11:23:38.617Z,61.73
2023-03-11T11:26:07.753Z,61.29
2023-03-11T11:28:36.002Z,61.50
2023-03-11T11:31:05.281Z,62.17
2023-03-11T11:33:36.612Z,63.18
2023-03-11T11:36:06.074Z,61.70
2023-03-11T11:38:34.667Z,61.49
2023-03-11T11:41:04.796Z,61.00
2023-03-11T11:43:47.791Z,60.15
2023-03-11T11:46:21.407Z,60.64
2023-03-11T11:48:54.252Z,60.10
2023-03-11T11:51:23.141Z,59.87
2023-03-11T11:53:53.515Z,59.31
2023-03-11T11:56:21.080Z,59.74
2023-03-11T11:58:48.735Z,60.37
2023-03-11T12:01:17.960Z,60.66
2023-03-11T12:04:01.233Z,60.27
2023-03-11T12:06:32.642Z,58.75
2023-03-11T12:09:08.432Z,58.80
2023-03-11T12:11:41.992Z,59.30
2023-03-11T12:14:14.262Z,59.63
2023-03-11T12:16:44.020Z,60.57
2023-03-11T12:19:20.996Z,59.20
2023-03-11T12:22:01.618Z,59.58
2023-03-11T12:24:42.952Z,58.52
2023-03-11T12:27:19.683Z,59.18
2023-03-11T12:29:49.340Z,59.91
2023-03-11T12:32:23.000Z,60.45
2023-03-11T12:34:52.072Z,60.60
2023-03-11T12:37:20.765Z,59.93
2023-03-11T12:39:48.394Z,60.56
2023-03-11T12:42:17.915Z,59.99
2023-03-11T12:44:46.884Z,58.67
2023-03-11T12:47:28.814Z,58.17
2023-03-11T12:50:36.927Z,60.17
2023-03-11T12:53:04.905Z,59.57
2023-03-11T12:55:36.871Z,59.33
2023-03-11T12:58:24.285Z,58.42
2023-03-11T13:01:04.707Z,58.06
2023-03-11T13:03:37.368Z,57.58
2023-03-11T13:06:20.875Z,58.00
2023-03-11T13:08:50.400Z,58.68
2023-03-11T13:11:37.633Z,57.59
2023-03-11T13:14:33.115Z,57.69
2023-03-11T13:17:25.962Z,58.40
2023-03-11T13:19:55.574Z,59.04
2023-03-11T13:22:44.307Z,57.56
2023-03-11T13:25:31.366Z,57.58
2023-03-11T13:28:06.129Z,57.04
2023-03-11T13:30:35.727Z,56.85
2023-03-11T13:33:19.365Z,57.85
2023-03-11T13:35:59.988Z,56.92
2023-03-11T13:39:15.000Z,57.37
2023-03-11T13:41:44.880Z,56.84
2023-03-11T13:44:15.989Z,56.52
2023-03-11T13:46:49.547Z,55.75
2023-03-11T13:49:26.225Z,56.11
2023-03-11T13:51:56.834Z,56.26
2023-03-11T13:54:47.749Z,56.79
2023-03-11T13:57:33.440Z,56.46
2023-03-11T14:00:15.888Z,55.69
2023-03-11T14:02:47.069Z,54.95
2023-03-11T14:05:17.254Z,56.30
2023-03-11T14:07:44.902Z,54.50
2023-03-11T14:10:30.291Z,55.55
2023-03-11T14:13:14.652Z,56.13
2023-03-11T14:15:47.979Z,56.01
2023-03-11T14:18:33.969Z,56.18
2023-03-11T14:21:02.446Z,55.60
2023-03-11T14:23:32.425Z,56.75
2023-03-11T14:26:07.998Z,55.60
2023-03-11T14:28:39.679Z,55.64
2023-03-11T14:31:07.705Z,55.85
2023-03-11T14:33:35.265Z,56.54
2023-03-11T14:36:05.916Z,55.41
2023-03-11T14:38:33.979Z,55.94
2023-03-11T14:41:03.905Z,56.58
2023-03-11T14:43:34.926Z,55.27
2023-03-11T14:46:03.478Z,55.31
2023-03-11T14:48:33.246Z,55.18
2023-03-11T14:51:03.943Z,56.49
2023-03-11T14:53:34.677Z,57.63
2023-03-11T14:56:04.344Z,56.01
2023-03-11T14:58:35.889Z,56.13
2023-03-11T15:01:05.660Z,56.41
2023-03-11T15:03:35.075Z,55.52
2023-03-11T15:06:05.331Z,55.27
2023-03-11T15:08:35.551Z,56.24
2023-03-11T15:11:05.334Z,55.58
2023-03-11T15:13:34.715Z,55.99
2023-03-11T15:16:03.854Z,56.16
2023-03-11T15:18:33.556Z,55.58
2023-03-11T15:21:07.021Z,54.25
2023-03-11T15:23:35.882Z,54.78
2023-03-11T15:26:06.883Z,55.24
2023-03-11T15:28:44.368Z,53.92
2023-03-11T15:31:25.720Z,54.43
2023-03-11T15:33:53.260Z,54.60
2023-03-11T15:36:31.454Z,54.63
2023-03-11T15:39:13.569Z,54.91
2023-03-11T15:41:41.664Z,55.51
2023-03-11T15:44:23.773Z,56.03
2023-03-11T15:46:51.423Z,56.85
2023-03-11T15:49:18.967Z,58.02
2023-03-11T15:51:46.517Z,58.00
2023-03-11T15:54:14.078Z,58.09
2023-03-11T15:56:42.437Z,57.40
2023-03-11T15:59:14.282Z,57.47
2023-03-11T16:01:43.481Z,56.80
2023-03-11T16:04:14.323Z,57.04
2023-03-11T16:06:42.554Z,56.65
2023-03-11T16:09:10.846Z,57.28
2023-03-11T16:11:38.834Z,58.12
2023-03-11T16:14:06.801Z,57.21
2023-03-11T16:16:34.445Z,57.20
2023-03-11T16:19:03.420Z,58.13
2023-03-11T16:21:34.628Z,57.33
2023-03-11T16:24:02.286Z,56.46
2023-03-11T16:26:30.905Z,57.81
2023-03-11T16:29:06.187Z,59.14
2023-03-11T16:31:40.377Z,58.06
2023-03-11T16:34:09.294Z,57.75
2023-03-11T16:36:36.919Z,57.38
2023-03-11T16:39:04.658Z,57.53
